Time;durP1;ratioP1;P1;durP2;ratioP2;P2;SDS_P1;SDS_P2;PMS_P1;PMS_P2;Temp;Humidity;BMP_temperature;BMP_pressure;BME280_temperature;BME280_humidity;BME280_pressure;Samples;Min_cycle;Max_cycle;Signal;HPM_P1;HPM_P2
2022/01/25 00:27:00;;;;;;;50.47;27.88;;;4.70;99.90;;;;;;4994143;28;20052;-61
2022/01/25 00:32:12;;;;;;;51.53;29.23;;;4.90;99.90;;;;;;4992847;28;20057;-61
2022/01/25 00:34:38;;;;;;;53.45;31.35;;;5.70;99.90;;;;;;4993946;28;20495;-61
2022/01/25 00:37:04;;;;;;;48.40;29.05;;;4.70;99.90;;;;;;4993926;28;20050;-61
2022/01/25 00:39:30;;;;;;;49.10;28.02;;;5.90;99.90;;;;;;4992955;28;20042;-62
2022/01/25 00:41:56;;;;;;;48.55;27.30;;;5.40;99.90;;;;;;4993489;28;20416;-61
2022/01/25 00:44:22;;;;;;;52.03;29.00;;;5.00;99.90;;;;;;5011529;28;20095;-61
2022/01/25 00:46:47;;;;;;;51.40;30.00;;;5.00;99.90;;;;;;5013083;28;20470;-61
2022/01/25 00:49:21;;;;;;;49.20;29.02;;;4.80;99.90;;;;;;5011867;28;20077;-61
2022/01/25 00:54:27;;;;;;;48.92;28.42;;;4.90;99.90;;;;;;5013082;28;20137;-61
2022/01/25 00:56:53;;;;;;;58.45;29.63;;;4.60;99.90;;;;;;5010796;28;20045;-61
2022/01/25 00:59:30;;;;;;;51.33;28.98;;;4.80;99.90;;;;;;5013193;28;20053;-61
2022/01/25 01:02:03;;;;;;;46.10;26.88;;;4.60;99.90;;;;;;5013509;28;20102;-61
2022/01/25 01:04:31;;;;;;;49.63;28.67;;;4.60;99.90;;;;;;4996384;28;20485;-62
2022/01/25 01:06:57;;;;;;;50.22;27.42;;;4.60;99.90;;;;;;5005003;28;20044;-61
2022/01/25 01:09:23;;;;;;;48.13;28.30;;;5.10;99.90;;;;;;4992466;28;20391;-62
2022/01/25 01:11:59;;;;;;;48.83;27.33;;;4.60;99.90;;;;;;4976907;28;20042;-61
2022/01/25 01:33:47;;;;;;;47.55;27.40;;;4.60;99.90;;;;;;5030166;28;20401;-61
2022/01/25 01:39:27;;;;;;;45.30;26.33;;;4.60;99.90;;;;;;4933978;28;20054;-61
2022/01/25 01:44:25;;;;;;;51.72;30.02;;;5.40;99.90;;;;;;4992985;28;20053;-61
2022/01/25 01:47:21;;;;;;;47.03;26.83;;;4.60;99.90;;;;;;4992826;28;20049;-61
2022/01/25 01:49:44;;;;;;;51.42;28.67;;;4.50;99.90;;;;;;4996088;28;20045;-61
2022/01/25 01:52:11;;;;;;;54.05;30.23;;;4.50;99.90;;;;;;5012291;28;20053;-61
2022/01/25 01:54:37;;;;;;;49.20;29.05;;;4.60;99.90;;;;;;5029592;28;20041;-61
2022/01/25 01:57:05;;;;;;;52.53;28.95;;;4.60;99.90;;;;;;5011023;28;20048;-61
2022/01/25 01:59:31;;;;;;;44.25;26.00;;;4.60;99.90;;;;;;5011956;28;20052;-61
2022/01/25 02:01:57;;;;;;;49.30;27.95;;;4.60;99.90;;;;;;5029714;28;20034;-61
2022/01/25 02:04:23;;;;;;;52.28;28.45;;;4.60;99.90;;;;;;5005718;28;20050;-61
2022/01/25 02:06:49;;;;;;;53.10;29.20;;;4.50;99.90;;;;;;4976112;28;20057;-61
2022/01/25 02:09:14;;;;;;;48.17;27.83;;;4.50;99.90;;;;;;4993291;28;20046;-61
2022/01/25 02:11:40;;;;;;;48.90;28.88;;;4.60;99.90;;;;;;4991297;28;20038;-61
2022/01/25 02:14:09;;;;;;;51.83;30.33;;;4.50;99.90;;;;;;4992416;28;20046;-61
2022/01/25 02:24:45;;;;;;;;;;;4.50;99.90;;;;;;5010591;28;20056;-61
2022/01/25 02:27:12;;;;;;;51.13;27.52;;;4.70;99.90;;;;;;5025810;28;20355;-61
2022/01/25 02:29:38;;;;;;;54.13;29.75;;;4.40;99.90;;;;;;4992292;28;20057;-61
2022/01/25 02:32:05;;;;;;;50.00;28.70;;;5.50;99.90;;;;;;4991638;28;20038;-61
2022/01/25 02:34:31;;;;;;;47.47;27.05;;;4.50;99.90;;;;;;5009569;28;20430;-61
2022/01/25 02:37:05;;;;;;;48.70;26.38;;;4.50;99.90;;;;;;5009554;28;20129;-61
2022/01/25 02:39:31;;;;;;;51.60;28.92;;;4.60;99.90;;;;;;5008825;28;20075;-61
2022/01/25 02:41:57;;;;;;;46.50;27.17;;;4.40;99.90;;;;;;4982543;28;20037;-61
2022/01/25 02:44:26;;;;;;;47.60;27.20;;;4.40;99.90;;;;;;4995454;28;20057;-61
2022/01/25 02:49:30;;;;;;;49.42;28.60;;;4.50;99.90;;;;;;4996303;28;20141;-61
2022/01/25 02:51:56;;;;;;;55.88;29.52;;;4.50;99.90;;;;;;4990865;28;20052;-61
2022/01/25 02:54:21;;;;;;;50.05;29.20;;;4.50;99.90;;;;;;4991858;28;20144;-61
2022/01/25 02:56:47;;;;;;;47.85;29.08;;;4.50;99.90;;;;;;4991371;28;20486;-61
2022/01/25 02:59:16;;;;;;;49.47;28.67;;;4.50;99.90;;;;;;4991346;28;20053;-61
2022/01/25 03:01:43;;;;;;;52.90;28.50;;;4.50;99.90;;;;;;5008797;28;20077;-61
2022/01/25 03:04:10;;;;;;;56.15;29.60;;;4.50;99.90;;;;;;5005141;28;20120;-61
2022/01/25 03:06:37;;;;;;;57.20;28.75;;;4.20;99.90;;;;;;5009988;28;20053;-61
2022/01/25 03:09:05;;;;;;;47.70;28.45;;;4.70;99.90;;;;;;5011214;28;20084;-61
2022/01/25 03:11:31;;;;;;;50.45;30.10;;;4.50;99.90;;;;;;5028716;28;20127;-61
2022/01/25 03:14:00;;;;;;;52.08;29.52;;;4.50;99.90;;;;;;5028044;28;20045;-61
2022/01/25 03:16:42;;;;;;;51.22;29.83;;;4.40;99.90;;;;;;5003998;28;20162;-61
2022/01/25 03:21:57;;;;;;;50.00;30.15;;;4.80;99.90;;;;;;5009652;28;20489;-61
2022/01/25 03:24:24;;;;;;;53.42;28.88;;;4.50;99.90;;;;;;5010667;28;20490;-61
2022/01/25 03:26:49;;;;;;;49.72;28.90;;;4.50;99.90;;;;;;5009973;28;20402;-61
2022/01/25 03:29:15;;;;;;;49.63;27.38;;;4.50;99.90;;;;;;5028842;28;20048;-61
2022/01/25 03:31:41;;;;;;;51.45;30.10;;;4.50;99.90;;;;;;5028195;28;20479;-61
2022/01/25 03:34:07;;;;;;;55.33;30.58;;;4.50;99.90;;;;;;5003142;28;20178;-61
2022/01/25 03:36:33;;;;;;;53.15;28.50;;;4.50;99.90;;;;;;4994478;28;20125;-61
2022/01/25 03:38:59;;;;;;;51.97;28.98;;;4.50;99.90;;;;;;5012225;28;20108;-61
2022/01/25 03:41:26;;;;;;;53.95;29.98;;;5.10;99.90;;;;;;4994091;28;20073;-61
2022/01/25 03:43:55;;;;;;;49.63;29.00;;;4.50;99.90;;;;;;4994618;28;20052;-61
2022/01/25 03:46:53;;;;;;;54.03;29.70;;;4.30;99.90;;;;;;5013856;28;20057;-61
2022/01/25 03:52:07;;;;;;;54.53;30.42;;;4.50;99.90;;;;;;5031661;28;20173;-61
2022/01/25 03:54:33;;;;;;;60.47;34.00;;;4.50;99.90;;;;;;5014248;28;20045;-61
2022/01/25 03:56:59;;;;;;;49.78;29.85;;;4.50;99.90;;;;;;5030811;28;20048;-61
2022/01/25 03:59:25;;;;;;;48.28;29.75;;;4.50;99.90;;;;;;5031762;28;20183;-61
2022/01/25 04:01:50;;;;;;;54.83;31.38;;;4.50;99.90;;;;;;5010436;28;20053;-61
2022/01/25 04:04:21;;;;;;;52.22;28.90;;;4.50;99.90;;;;;;5031849;28;20493;-61
2022/01/25 04:06:50;;;;;;;52.78;30.05;;;4.50;99.90;;;;;;4997368;28;20474;-61
2022/01/25 04:09:16;;;;;;;53.78;30.15;;;4.50;99.90;;;;;;5030755;28;20505;-61
2022/01/25 04:11:42;;;;;;;51.97;29.33;;;4.50;99.90;;;;;;5013266;28;20045;-61
2022/01/25 04:14:08;;;;;;;61.28;32.08;;;4.50;99.90;;;;;;5013355;28;20049;-61
2022/01/25 04:16:38;;;;;;;51.80;29.52;;;4.40;99.90;;;;;;4993041;28;20060;-61
2022/01/25 04:19:24;;;;;;;52.80;28.35;;;4.50;99.90;;;;;;4994197;28;20050;-61
2022/01/25 04:27:25;;;;;;;56.40;30.67;;;4.40;99.90;;;;;;5035648;28;20056;-61
2022/01/25 04:29:52;;;;;;;54.13;28.73;;;4.40;99.90;;;;;;5024452;28;20102;-61
2022/01/25 04:32:20;;;;;;;54.40;30.70;;;4.50;99.90;;;;;;4995304;28;20501;-61
2022/01/25 04:35:08;;;;;;;55.65;29.90;;;4.20;99.90;;;;;;4993222;28;20053;-61
2022/01/25 04:54:02;;;;;;;50.55;28.98;;;4.40;99.90;;;;;;4994105;28;20045;-61
2022/01/25 04:56:56;;;;;;;51.85;30.20;;;4.40;99.90;;;;;;5027729;28;20452;-61
2022/01/25 05:01:48;;;;;;;50.58;28.30;;;4.00;99.90;;;;;;5012611;28;20119;-61
2022/01/25 05:04:21;;;;;;;49.03;28.08;;;4.40;99.90;;;;;;5012994;28;20045;-61
2022/01/25 05:06:49;;;;;;;52.85;28.25;;;4.90;99.90;;;;;;5012338;28;20037;-61
2022/01/25 05:09:16;;;;;;;51.10;28.83;;;4.50;99.90;;;;;;5001601;28;20046;-61
2022/01/25 05:11:48;;;;;;;52.17;29.10;;;4.60;99.90;;;;;;5025167;28;20045;-61
2022/01/25 05:14:24;;;;;;;54.05;28.63;;;4.40;99.90;;;;;;5012574;28;20041;-61
2022/01/25 05:16:53;;;;;;;53.30;29.55;;;4.50;99.90;;;;;;5012452;28;20142;-61
2022/01/25 05:22:02;;;;;;;51.03;29.60;;;4.50;99.90;;;;;;4995903;28;20057;-61
2022/01/25 05:22:19;;;;;;;56.88;31.90;;;4.50;99.90;;;;;;5030508;28;20485;-61
2022/01/25 05:24:45;;;;;;;48.45;27.17;;;4.40;99.90;;;;;;4994767;28;20490;-61
2022/01/25 05:27:13;;;;;;;52.03;29.52;;;4.50;99.90;;;;;;5009968;28;20075;-61
2022/01/25 05:29:39;;;;;;;55.28;29.48;;;4.50;99.90;;;;;;4992950;28;20090;-61
2022/01/25 05:32:06;;;;;;;51.30;27.92;;;4.40;99.90;;;;;;5010724;28;20503;-61
2022/01/25 05:34:32;;;;;;;53.95;29.02;;;4.50;99.90;;;;;;5009575;28;20057;-61
2022/01/25 05:36:58;;;;;;;54.50;29.35;;;4.50;99.90;;;;;;5018361;28;20094;-61
2022/01/25 05:39:29;;;;;;;53.22;28.15;;;4.50;99.90;;;;;;5012829;28;20055;-61
2022/01/25 05:41:57;;;;;;;53.35;29.00;;;4.50;99.90;;;;;;5011996;28;20054;-61
2022/01/25 05:49:24;;;;;;;52.80;29.77;;;4.50;99.90;;;;;;5011579;28;20041;-61
2022/01/25 05:51:50;;;;;;;54.15;29.35;;;4.50;99.90;;;;;;5019609;28;20045;-61
2022/01/25 05:54:16;;;;;;;53.28;29.25;;;4.40;99.90;;;;;;4992276;28;20081;-61
2022/01/25 05:56:42;;;;;;;56.72;29.50;;;4.30;99.90;;;;;;5008605;28;20073;-62
2022/01/25 05:59:08;;;;;;;54.33;28.48;;;4.50;99.90;;;;;;5010485;28;20068;-61
2022/01/25 06:01:35;;;;;;;46.63;28.35;;;4.50;99.90;;;;;;4991614;28;20054;-61
2022/01/25 06:04:00;;;;;;;54.05;29.98;;;4.50;99.90;;;;;;4992542;28;20060;-61
2022/01/25 06:06:27;;;;;;;52.78;29.23;;;4.50;99.90;;;;;;4972532;28;20565;-61
2022/01/25 06:08:53;;;;;;;48.00;27.75;;;4.50;99.90;;;;;;4972141;28;20038;-61
2022/01/25 06:11:20;;;;;;;51.58;27.75;;;4.80;99.90;;;;;;4978113;28;20043;-61
2022/01/25 06:13:46;;;;;;;49.90;27.50;;;4.50;99.90;;;;;;5009719;28;20049;-61
2022/01/25 06:16:12;;;;;;;51.30;28.88;;;4.50;99.90;;;;;;4975774;28;20501;-61
2022/01/25 06:18:37;;;;;;;53.88;28.70;;;4.60;99.90;;;;;;4991981;28;20041;-61
2022/01/25 06:21:03;;;;;;;53.42;29.75;;;4.40;99.90;;;;;;5009904;28;20057;-61
2022/01/25 06:23:29;;;;;;;56.10;31.42;;;4.50;99.90;;;;;;4991298;28;20046;-61
2022/01/25 06:25:54;;;;;;;55.42;28.95;;;4.20;99.90;;;;;;4977598;28;20394;-61
2022/01/25 06:28:20;;;;;;;50.03;28.83;;;5.80;99.90;;;;;;5011255;28;20489;-61
2022/01/25 06:30:46;;;;;;;49.97;28.83;;;4.60;99.90;;;;;;4985943;28;20116;-61
2022/01/25 06:33:12;;;;;;;50.88;27.02;;;4.60;99.90;;;;;;5009309;28;20452;-61
2022/01/25 06:35:38;;;;;;;50.75;28.15;;;4.50;99.90;;;;;;5009237;28;20510;-61
2022/01/25 06:38:04;;;;;;;52.75;29.20;;;5.40;99.90;;;;;;4991552;28;20171;-61
2022/01/25 06:40:30;;;;;;;49.33;27.48;;;4.50;99.90;;;;;;4991919;28;20046;-61
2022/01/25 06:42:56;;;;;;;55.75;29.88;;;4.50;99.90;;;;;;4991758;28;20046;-61
2022/01/25 06:45:23;;;;;;;54.45;28.90;;;4.60;99.90;;;;;;5008636;28;20414;-61
2022/01/25 06:47:50;;;;;;;49.47;27.88;;;4.40;99.90;;;;;;5002106;28;20049;-61
2022/01/25 06:50:18;;;;;;;49.60;29.08;;;4.60;99.90;;;;;;5011595;28;20049;-61
2022/01/25 06:52:45;;;;;;;54.90;29.77;;;4.60;99.90;;;;;;5010315;28;20045;-61
2022/01/25 06:55:13;;;;;;;50.38;26.95;;;4.50;99.90;;;;;;5011571;28;20094;-61
2022/01/25 06:57:40;;;;;;;60.85;31.90;;;4.60;99.90;;;;;;5010189;28;20049;-61
2022/01/25 07:00:13;;;;;;;47.40;27.90;;;4.80;99.90;;;;;;4991970;28;20574;-61
2022/01/25 07:02:39;;;;;;;51.22;28.95;;;4.50;99.90;;;;;;4991440;28;20073;-61
2022/01/25 07:05:05;;;;;;;49.22;27.50;;;4.50;99.90;;;;;;4974954;28;20091;-61
2022/01/25 07:07:31;;;;;;;51.72;28.58;;;4.50;99.90;;;;;;4994332;28;20486;-61
2022/01/25 07:09:57;;;;;;;53.63;30.52;;;4.50;99.90;;;;;;4995005;28;20037;-61
2022/01/25 07:12:23;;;;;;;59.30;31.55;;;4.30;99.90;;;;;;5012170;28;20053;-61
2022/01/25 07:14:49;;;;;;;49.00;27.50;;;4.40;99.90;;;;;;4995459;28;20042;-61
2022/01/25 07:17:15;;;;;;;54.42;29.73;;;4.30;99.90;;;;;;4995038;28;20081;-61
2022/01/25 07:19:41;;;;;;;52.25;28.75;;;5.10;99.90;;;;;;4977843;28;20100;-61
2022/01/25 07:22:06;;;;;;;54.95;30.35;;;4.50;99.90;;;;;;4995118;28;20129;-61
2022/01/25 07:24:32;;;;;;;56.55;32.30;;;4.50;99.90;;;;;;4994590;28;20129;-61
2022/01/25 07:26:58;;;;;;;56.47;28.90;;;5.00;99.90;;;;;;4994205;28;20073;-61
2022/01/25 07:29:24;;;;;;;53.70;30.13;;;4.50;99.90;;;;;;4991552;28;20463;-61
2022/01/25 07:31:49;;;;;;;55.00;30.27;;;4.30;99.90;;;;;;5031814;28;20401;-61
2022/01/25 07:34:15;;;;;;;57.33;31.42;;;4.50;99.90;;;;;;4997622;28;20556;-61
2022/01/25 07:36:42;;;;;;;58.67;32.13;;;4.50;99.90;;;;;;5031616;28;20124;-61
2022/01/25 07:39:09;;;;;;;54.00;29.33;;;4.50;99.90;;;;;;5032280;28;20048;-61
2022/01/25 07:41:36;;;;;;;51.17;29.95;;;4.70;99.90;;;;;;5013320;28;20090;-61
2022/01/25 07:44:02;;;;;;;56.38;32.88;;;4.60;99.90;;;;;;5002322;28;20042;-61
2022/01/25 07:46:29;;;;;;;65.60;34.58;;;4.60;99.90;;;;;;5074720;28;20045;-61
2022/01/25 07:48:56;;;;;;;61.25;31.73;;;4.50;99.90;;;;;;5079389;28;20138;-62
2022/01/25 07:51:22;;;;;;;56.00;30.58;;;4.50;99.90;;;;;;5063426;28;20049;-61
2022/01/25 07:53:47;;;;;;;56.65;30.73;;;4.60;99.90;;;;;;5071381;28;20038;-61
2022/01/25 07:56:13;;;;;;;55.58;30.85;;;4.60;99.90;;;;;;5018146;28;20056;-61
2022/01/25 07:58:39;;;;;;;55.30;29.77;;;4.60;99.90;;;;;;5039868;28;20087;-61
2022/01/25 08:01:05;;;;;;;54.47;29.33;;;4.60;99.90;;;;;;4993678;28;20058;-61
2022/01/25 08:03:31;;;;;;;58.30;30.88;;;4.40;99.90;;;;;;4971327;28;20133;-61
2022/01/25 08:05:57;;;;;;;65.03;33.00;;;4.40;99.90;;;;;;4996121;28;20063;-61
2022/01/25 08:08:23;;;;;;;56.97;29.70;;;4.60;99.90;;;;;;4982284;28;20046;-61
2022/01/25 08:10:48;;;;;;;57.85;29.38;;;4.60;99.90;;;;;;5047459;28;20403;-61
2022/01/25 08:13:14;;;;;;;58.28;32.30;;;4.60;99.90;;;;;;4999020;28;20033;-61
2022/01/25 08:15:40;;;;;;;56.72;29.98;;;4.60;99.90;;;;;;5014813;28;20416;-61
2022/01/25 08:18:06;;;;;;;55.97;30.00;;;4.60;99.90;;;;;;4975540;28;20067;-61
2022/01/25 08:20:32;;;;;;;53.03;29.08;;;4.60;99.90;;;;;;5073009;28;20049;-61
2022/01/25 08:22:57;;;;;;;58.55;32.17;;;4.60;99.90;;;;;;5076640;28;20038;-61
2022/01/25 08:25:23;;;;;;;52.42;29.55;;;4.60;99.90;;;;;;5009232;28;20054;-61
2022/01/25 08:27:49;;;;;;;52.17;30.20;;;4.60;99.90;;;;;;5076625;28;20084;-62
2022/01/25 08:30:15;;;;;;;56.28;29.90;;;4.60;99.90;;;;;;5076671;28;20107;-61
2022/01/25 08:32:41;;;;;;;53.50;30.42;;;4.60;99.90;;;;;;4996083;28;20166;-61
2022/01/25 08:35:08;;;;;;;54.17;29.02;;;4.60;99.90;;;;;;4992043;28;20102;-61
2022/01/25 08:37:34;;;;;;;54.03;29.73;;;4.70;99.90;;;;;;4992841;28;20053;-61
2022/01/25 08:39:59;;;;;;;52.80;30.92;;;4.60;99.90;;;;;;4995725;28;20136;-61
2022/01/25 08:42:25;;;;;;;54.83;29.67;;;4.60;99.90;;;;;;4973392;28;20458;-61
2022/01/25 08:44:51;;;;;;;60.92;33.70;;;4.60;99.90;;;;;;5065054;28;20917;-61
2022/01/25 08:47:16;;;;;;;60.00;31.85;;;4.60;99.90;;;;;;4989009;28;20046;-61
2022/01/25 08:49:42;;;;;;;52.05;29.50;;;4.60;99.90;;;;;;4979120;28;20061;-61
2022/01/25 08:52:08;;;;;;;57.55;31.42;;;4.60;99.90;;;;;;4973550;28;20045;-61
2022/01/25 08:54:35;;;;;;;53.55;29.48;;;4.60;99.90;;;;;;5003420;28;20038;-61
2022/01/25 08:57:02;;;;;;;57.78;30.95;;;4.60;99.90;;;;;;4994987;28;20069;-61
2022/01/25 08:59:28;;;;;;;52.92;30.90;;;4.60;99.90;;;;;;4983702;28;20049;-61
2022/01/25 09:01:53;;;;;;;58.30;33.67;;;4.60;99.90;;;;;;4990598;28;20454;-61
2022/01/25 09:04:19;;;;;;;57.40;31.13;;;4.60;99.90;;;;;;4997643;28;20452;-61
2022/01/25 09:06:45;;;;;;;61.50;33.47;;;4.60;99.90;;;;;;4990559;28;20119;-61
2022/01/25 09:09:11;;;;;;;59.55;32.08;;;4.60;99.90;;;;;;5010642;28;20080;-61
2022/01/25 09:11:38;;;;;;;54.38;30.77;;;4.60;99.90;;;;;;4974838;28;20078;-61
2022/01/25 09:14:04;;;;;;;56.22;31.00;;;4.60;99.90;;;;;;4985612;28;20098;-61
2022/01/25 09:16:31;;;;;;;56.75;32.10;;;4.90;99.90;;;;;;5002656;28;20043;-61
2022/01/25 09:18:56;;;;;;;57.55;30.67;;;4.60;99.90;;;;;;4987234;28;20052;-61
2022/01/25 09:21:23;;;;;;;56.78;31.00;;;4.60;99.90;;;;;;5000897;28;20042;-61
2022/01/25 09:23:49;;;;;;;60.20;31.15;;;4.70;99.90;;;;;;5018349;28;20038;-61
2022/01/25 09:26:15;;;;;;;57.30;30.45;;;4.60;99.90;;;;;;5074434;28;20387;-61
2022/01/25 09:28:41;;;;;;;59.45;33.17;;;4.60;99.90;;;;;;5035601;28;20044;-61
2022/01/25 09:31:06;;;;;;;61.63;33.22;;;4.50;99.90;;;;;;4981096;28;20128;-61
2022/01/25 09:33:32;;;;;;;55.33;28.70;;;4.60;99.90;;;;;;4996001;28;20042;-61
2022/01/25 09:35:58;;;;;;;57.55;29.10;;;4.60;99.90;;;;;;4974816;28;20044;-61
2022/01/25 09:38:24;;;;;;;56.92;31.48;;;4.50;99.90;;;;;;4992345;28;20498;-61
2022/01/25 09:40:50;;;;;;;55.78;29.85;;;4.60;99.90;;;;;;4986627;28;20053;-61
2022/01/25 09:43:16;;;;;;;50.30;28.75;;;4.60;99.90;;;;;;4979660;28;20089;-60
2022/01/25 09:45:42;;;;;;;60.92;33.38;;;4.60;99.90;;;;;;5001055;28;20057;-61
2022/01/25 09:48:09;;;;;;;56.03;30.80;;;4.60;99.90;;;;;;5006043;28;20034;-61
2022/01/25 09:50:37;;;;;;;60.30;31.23;;;4.60;99.90;;;;;;5002222;28;20043;-61
2022/01/25 09:53:05;;;;;;;54.63;29.70;;;4.60;99.90;;;;;;4970857;28;20042;-61
2022/01/25 09:55:33;;;;;;;62.65;31.00;;;4.60;99.90;;;;;;5037790;28;20398;-61
2022/01/25 09:57:58;;;;;;;56.90;32.42;;;4.60;99.90;;;;;;5006090;28;20483;-61
2022/01/25 10:00:28;;;;;;;61.53;31.25;;;4.60;99.90;;;;;;4979627;28;20049;-61
2022/01/25 10:03:01;;;;;;;56.72;31.02;;;4.60;99.90;;;;;;4986105;28;20034;-61
2022/01/25 10:05:33;;;;;;;60.63;32.13;;;4.60;99.90;;;;;;4987462;28;20518;-61
2022/01/25 10:08:14;;;;;;;65.43;31.50;;;4.60;99.90;;;;;;4982258;28;20034;-60
2022/01/25 10:10:58;;;;;;;57.97;32.53;;;4.70;99.90;;;;;;4959657;28;20099;-61
2022/01/25 10:13:28;;;;;;;56.25;31.42;;;4.50;99.90;;;;;;4999721;28;20491;-61
2022/01/25 10:16:01;;;;;;;59.00;32.42;;;4.60;99.90;;;;;;5007262;28;20444;-61
2022/01/25 10:18:50;;;;;;;63.42;32.90;;;4.70;99.90;;;;;;4992129;28;20041;-61
2022/01/25 10:21:35;;;;;;;56.00;30.20;;;4.70;99.90;;;;;;4989215;28;20045;-60
2022/01/25 10:24:08;;;;;;;57.13;31.40;;;4.60;99.90;;;;;;4972365;28;20042;-61
2022/01/25 10:26:40;;;;;;;64.05;32.15;;;4.70;99.90;;;;;;4972870;28;20039;-61
2022/01/25 10:29:11;;;;;;;59.58;31.58;;;4.70;99.90;;;;;;4973985;28;20395;-61
2022/01/25 10:31:46;;;;;;;66.32;31.10;;;4.70;99.90;;;;;;4972485;28;20133;-61
2022/01/25 10:34:20;;;;;;;59.30;32.13;;;4.80;99.90;;;;;;4973155;28;20046;-61
2022/01/25 10:36:49;;;;;;;60.47;32.17;;;4.80;99.90;;;;;;4971847;28;20107;-61
2022/01/25 10:39:21;;;;;;;56.88;30.08;;;4.70;99.90;;;;;;4973273;28;20075;-61
2022/01/25 10:41:47;;;;;;;61.03;31.10;;;5.10;99.90;;;;;;4971806;28;20054;-61
2022/01/25 10:44:13;;;;;;;58.60;30.42;;;;;;;;;;5011393;28;20051;-61
2022/01/25 10:46:39;;;;;;;57.80;33.90;;;4.90;99.90;;;;;;4981994;28;20037;-61
2022/01/25 10:49:06;;;;;;;58.83;31.75;;;4.80;99.90;;;;;;5009483;28;20482;-62
2022/01/25 10:51:42;;;;;;;61.92;32.28;;;4.80;99.90;;;;;;5059889;28;20050;-61
2022/01/25 10:54:14;;;;;;;63.17;31.48;;;4.80;99.90;;;;;;5060492;28;20049;-61
2022/01/25 10:56:54;;;;;;;59.72;32.72;;;4.80;99.90;;;;;;5077166;28;20129;-61
2022/01/25 10:59:23;;;;;;;56.08;30.75;;;4.80;99.90;;;;;;4978801;28;20086;-61
2022/01/25 11:01:53;;;;;;;53.25;29.15;;;4.50;99.90;;;;;;4972223;28;20081;-61
2022/01/25 11:04:23;;;;;;;71.47;35.28;;;4.90;99.90;;;;;;5033783;28;20467;-61
2022/01/25 11:07:03;;;;;;;63.15;32.88;;;4.90;99.90;;;;;;4980130;28;20394;-61
2022/01/25 11:09:36;;;;;;;55.72;31.02;;;4.80;99.90;;;;;;4992512;28;20068;-61
2022/01/25 11:12:08;;;;;;;58.33;30.35;;;4.80;99.90;;;;;;4996322;28;20062;-61
2022/01/25 11:14:50;;;;;;;69.20;35.60;;;4.80;99.90;;;;;;4986190;28;20518;-61
2022/01/25 11:17:16;;;;;;;65.68;36.20;;;4.80;99.90;;;;;;5056395;28;20042;-61
2022/01/25 11:19:42;;;;;;;68.43;35.97;;;4.80;99.90;;;;;;4987169;28;20069;-61
2022/01/25 11:22:12;;;;;;;59.47;31.35;;;4.80;99.90;;;;;;5067584;28;20517;-61
2022/01/25 11:24:39;;;;;;;58.97;32.78;;;6.00;99.90;;;;;;4969542;28;20054;-61
2022/01/25 11:27:07;;;;;;;58.85;32.72;;;4.70;99.90;;;;;;5001785;28;20060;-61
2022/01/25 11:29:36;;;;;;;54.47;30.88;;;5.00;99.90;;;;;;5040565;28;20075;-61
2022/01/25 11:32:06;;;;;;;66.75;36.67;;;4.70;99.90;;;;;;5006168;28;20050;-61
2022/01/25 11:34:35;;;;;;;59.42;31.58;;;5.10;99.90;;;;;;5074691;28;20078;-61
2022/01/25 11:37:04;;;;;;;60.95;33.55;;;4.70;99.90;;;;;;5023741;28;20092;-61
2022/01/25 11:39:31;;;;;;;55.78;31.58;;;4.70;99.90;;;;;;4988388;28;20065;-61
2022/01/25 11:42:10;;;;;;;60.03;32.38;;;4.40;99.90;;;;;;4972798;28;20053;-61
2022/01/25 11:44:48;;;;;;;57.70;32.50;;;4.70;99.90;;;;;;4977143;28;20054;-61
2022/01/25 11:47:16;;;;;;;61.55;31.25;;;4.70;99.90;;;;;;4987815;28;20118;-61
2022/01/25 11:49:58;;;;;;;63.50;34.70;;;4.40;99.90;;;;;;5006130;28;20061;-61
2022/01/25 11:52:26;;;;;;;60.25;33.00;;;4.70;99.90;;;;;;4989289;28;20065;-61
2022/01/25 11:54:54;;;;;;;62.03;32.97;;;4.60;99.90;;;;;;5059501;28;20045;-61
2022/01/25 11:57:25;;;;;;;67.70;34.35;;;4.70;99.90;;;;;;4978728;28;20133;-61
2022/01/25 11:59:54;;;;;;;63.88;33.90;;;4.70;99.90;;;;;;5018209;28;20451;-61
2022/01/25 12:02:40;;;;;;;63.35;32.63;;;4.70;99.90;;;;;;4987235;28;20046;-61
2022/01/25 12:05:09;;;;;;;59.72;32.80;;;4.70;99.90;;;;;;4997776;28;20053;-61
2022/01/25 12:07:43;;;;;;;62.17;34.20;;;4.70;99.90;;;;;;5004098;28;20065;-61
2022/01/25 12:10:32;;;;;;;61.40;32.17;;;4.70;99.90;;;;;;5013509;28;20129;-61
2022/01/25 12:13:20;;;;;;;60.15;31.67;;;4.70;99.90;;;;;;5004169;28;20079;-61
2022/01/25 12:16:23;;;;;;;58.08;33.03;;;4.70;99.90;;;;;;5063012;28;20057;-61
2022/01/25 12:18:58;;;;;;;59.45;32.45;;;4.70;99.90;;;;;;5077045;28;20057;-61
2022/01/25 12:21:50;;;;;;;63.90;34.67;;;4.80;99.90;;;;;;5076488;28;20054;-61
2022/01/25 12:24:42;;;;;;;59.53;30.25;;;4.70;99.90;;;;;;4990062;28;20313;-61
2022/01/25 12:27:26;;;;;;;62.67;33.80;;;4.70;99.90;;;;;;5025484;28;20050;-61
2022/01/25 12:30:08;;;;;;;59.80;33.08;;;4.70;99.90;;;;;;5077015;28;20681;-61
2022/01/25 12:32:35;;;;;;;59.38;32.83;;;;;;;;;;5070853;28;20042;-64
2022/01/25 12:35:11;;;;;;;65.60;34.53;;;4.70;99.90;;;;;;4993984;28;20053;-61
2022/01/25 12:37:43;;;;;;;64.82;32.92;;;4.60;99.90;;;;;;4989942;28;20080;-61
2022/01/25 12:40:26;;;;;;;58.08;32.20;;;4.80;99.90;;;;;;5006179;28;20046;-61
2022/01/25 12:42:58;;;;;;;56.50;30.65;;;4.80;99.90;;;;;;4982627;28;20050;-61
2022/01/25 12:45:30;;;;;;;54.63;31.15;;;4.80;99.90;;;;;;4972135;28;20061;-61
2022/01/25 12:48:02;;;;;;;60.00;32.63;;;4.80;99.90;;;;;;4972015;28;20146;-61
2022/01/25 12:50:29;;;;;;;61.17;32.95;;;4.90;99.90;;;;;;4992907;28;20061;-61
2022/01/25 12:52:57;;;;;;;63.95;35.42;;;4.70;99.90;;;;;;4996868;28;20042;-61
2022/01/25 12:55:27;;;;;;;57.60;32.10;;;4.80;99.90;;;;;;4960319;28;20042;-62
2022/01/25 12:57:54;;;;;;;59.45;31.38;;;4.50;99.90;;;;;;4986280;28;20038;-62
2022/01/25 13:00:20;;;;;;;62.78;33.53;;;4.70;99.90;;;;;;4993753;28;20049;-60
2022/01/25 13:02:45;;;;;;;59.13;32.95;;;4.80;99.90;;;;;;4992802;28;20148;-61
2022/01/25 13:05:20;;;;;;;60.45;32.72;;;4.60;99.90;;;;;;5010088;28;20121;-60
2022/01/25 13:07:46;;;;;;;57.25;30.92;;;4.90;99.90;;;;;;4992958;28;20517;-60
2022/01/25 13:10:27;;;;;;;62.97;32.92;;;4.70;99.90;;;;;;4975373;28;20042;-60
2022/01/25 13:12:58;;;;;;;62.78;35.05;;;4.80;99.90;;;;;;4974208;28;20040;-60
2022/01/25 13:18:11;;;;;;;60.75;32.53;;;4.80;99.90;;;;;;5006175;28;20050;-60
2022/01/25 13:20:39;;;;;;;64.28;31.95;;;4.50;99.90;;;;;;4973488;28;20113;-60
2022/01/25 13:23:05;;;;;;;60.55;33.03;;;4.80;99.90;;;;;;4994345;28;20053;-60
2022/01/25 13:25:54;;;;;;;60.38;30.73;;;5.00;99.90;;;;;;4973171;28;20406;-60
2022/01/25 13:30:40;;;;;;;61.03;32.83;;;4.80;99.90;;;;;;4974211;28;20101;-60
2022/01/25 13:31:19;;;;;;;60.03;31.55;;;4.80;99.90;;;;;;4984141;28;20050;-61
2022/01/25 13:33:44;;;;;;;64.90;36.25;;;4.70;99.90;;;;;;5005226;28;20050;-62
2022/01/25 13:36:15;;;;;;;66.45;32.90;;;5.70;99.90;;;;;;4973822;28;20380;-62
2022/01/25 13:38:41;;;;;;;60.38;31.85;;;5.40;99.90;;;;;;4989695;28;20406;-62
2022/01/25 13:46:39;;;;;;;67.22;34.50;;;4.70;99.90;;;;;;5003754;28;20054;-62
2022/01/25 13:49:17;;;;;;;68.60;36.30;;;4.70;99.90;;;;;;5006340;28;20419;-62
2022/01/25 13:51:46;;;;;;;68.85;34.70;;;4.60;99.90;;;;;;4984303;28;20068;-62
2022/01/25 13:54:15;;;;;;;66.07;36.22;;;4.60;99.90;;;;;;4992290;28;20546;-62
2022/01/25 13:56:41;;;;;;;65.00;33.92;;;4.70;99.90;;;;;;5009941;28;20037;-61
2022/01/25 13:59:08;;;;;;;67.95;36.90;;;4.60;99.90;;;;;;4976589;28;20398;-61
2022/01/25 14:01:35;;;;;;;71.68;39.47;;;4.60;99.90;;;;;;5009359;28;20123;-60
2022/01/25 14:04:25;;;;;;;74.57;37.75;;;4.60;99.90;;;;;;4992822;28;20094;-61
2022/01/25 14:06:53;;;;;;;67.93;34.85;;;4.60;99.90;;;;;;4993413;28;20046;-61
2022/01/25 14:09:28;;;;;;;68.20;33.30;;;4.60;99.90;;;;;;5010445;28;20500;-60
2022/01/25 14:25:42;;;;;;;67.82;34.55;;;4.40;99.90;;;;;;5003990;28;20402;-60
2022/01/25 14:28:18;;;;;;;66.90;34.95;;;4.50;99.90;;;;;;5051302;28;20104;-61
2022/01/25 14:30:46;;;;;;;73.13;36.53;;;4.50;99.90;;;;;;5090181;28;20043;-60
2022/01/25 14:33:15;;;;;;;65.80;34.50;;;4.40;99.90;;;;;;4992577;28;20045;-61
2022/01/25 14:35:52;;;;;;;67.72;34.65;;;4.40;99.90;;;;;;5008737;28;20041;-61
2022/01/25 14:38:28;;;;;;;67.45;32.33;;;4.40;99.90;;;;;;4992121;28;20087;-61
2022/01/25 14:41:02;;;;;;;64.85;34.88;;;4.40;99.90;;;;;;4992306;28;20089;-61
2022/01/25 14:43:33;;;;;;;72.13;36.70;;;4.40;99.90;;;;;;4983509;28;20049;-61
2022/01/25 14:46:17;;;;;;;63.33;34.97;;;5.20;99.90;;;;;;4976375;28;20049;-61
2022/01/25 14:48:45;;;;;;;68.20;35.55;;;4.40;99.90;;;;;;4989866;28;20091;-61
2022/01/25 14:51:12;;;;;;;69.38;36.08;;;4.60;99.90;;;;;;5045607;28;20521;-61
2022/01/25 14:53:42;;;;;;;76.78;37.95;;;4.30;99.90;;;;;;4971094;28;20065;-61